Time;durP1;ratioP1;P1;durP2;ratioP2;P2;SDS_P1;SDS_P2;PMS_P1;PMS_P2;Temp;Humidity;BMP_temperature;BMP_pressure;BME280_temperature;BME280_humidity;BME280_pressure;Samples;Min_cycle;Max_cycle;Signal;HPM_P1;HPM_P2
2022/01/27 00:01:54;;;;;;;11.17;5.73;;;;;;;-0.24;100.00;95157.31;5072848;28;20176;-61
2022/01/27 00:04:26;;;;;;;6.67;4.07;;;;;;;-0.28;100.00;95164.09;5072777;28;20202;-61
2022/01/27 00:06:51;;;;;;;6.17;4.10;;;;;;;-0.24;100.00;95168.13;5071306;28;20172;-66
2022/01/27 00:09:24;;;;;;;9.03;4.27;;;;;;;-0.19;100.00;95163.81;5071882;28;20211;-66
2022/01/27 00:11:49;;;;;;;8.27;4.93;;;;;;;-0.23;100.00;95152.28;5071003;28;20215;-60
2022/01/27 00:14:18;;;;;;;6.73;4.40;;;;;;;-0.25;100.00;95159.03;5072216;28;20290;-67
2022/01/27 00:16:53;;;;;;;6.30;3.87;;;;;;;-0.26;100.00;95159.88;5071701;28;20200;-61
2022/01/27 00:19:26;;;;;;;7.40;4.30;;;;;;;-0.27;100.00;95155.75;5071663;28;20219;-66
2022/01/27 00:21:52;;;;;;;8.93;5.10;;;;;;;-0.29;100.00;95147.50;5072029;28;20187;-65
2022/01/27 00:24:17;;;;;;;7.93;4.20;;;;;;;-0.40;100.00;95126.25;5072030;28;20208;-59
2022/01/27 00:26:43;;;;;;;7.03;4.27;;;;;;;-0.19;100.00;95151.31;5071663;28;20255;-65
2022/01/27 00:29:09;;;;;;;8.93;3.50;;;;;;;-0.24;100.00;95143.16;5071956;28;20689;-65
2022/01/27 00:31:35;;;;;;;5.67;3.33;;;;;;;-0.30;100.00;95143.38;5070299;28;20646;-61
2022/01/27 00:34:04;;;;;;;7.30;4.10;;;;;;;-0.32;100.00;95142.59;5070283;28;20250;-63
2022/01/27 00:36:33;;;;;;;7.13;3.70;;;;;;;-0.31;100.00;95143.44;5076678;23;20293;-60
2022/01/27 00:38:59;;;;;;;7.17;4.07;;;;;;;-0.27;100.00;95143.28;5071546;28;20199;-61
2022/01/27 00:41:25;;;;;;;6.33;3.67;;;;;;;-0.28;100.00;95141.63;5070193;28;20187;-61
2022/01/27 00:43:51;;;;;;;5.87;3.73;;;;;;;-0.21;100.00;95139.75;5071539;28;20532;-67
2022/01/27 00:46:18;;;;;;;7.00;4.13;;;;;;;-0.27;100.00;95139.94;5071290;28;20282;-60
2022/01/27 00:48:45;;;;;;;5.37;3.33;;;;;;;-0.28;100.00;95138.31;5071361;28;20716;-60
2022/01/27 00:51:13;;;;;;;5.13;3.50;;;;;;;-0.24;100.00;95148.16;5071350;28;20173;-61
2022/01/27 00:53:53;;;;;;;4.33;3.30;;;;;;;-0.32;100.00;95146.78;5071258;28;20694;-59
2022/01/27 00:56:35;;;;;;;7.80;3.60;;;;;;;-0.26;100.00;95149.88;5071330;28;20194;-65
2022/01/27 01:01:32;;;;;;;6.40;4.07;;;;;;;-0.24;100.00;95143.16;5070079;28;20653;-61
2022/01/27 01:04:01;;;;;;;5.90;3.63;;;;;;;-0.22;100.00;95141.41;5054538;28;20215;-67
2022/01/27 01:06:43;;;;;;;5.83;3.73;;;;;;;-0.19;100.00;95141.31;5070069;28;20253;-61
2022/01/27 01:10:04;;;;;;;4.67;3.50;;;;;;;-0.20;100.00;95134.69;5071455;28;20212;-66
2022/01/27 01:14:39;;;;;;;7.77;4.00;;;;;;;0.06;100.00;95135.44;5071448;28;20543;-65
2022/01/27 01:30:44;;;;;;;6.97;3.90;;;;;;;0.30;100.00;95147.84;5070836;28;20195;-61
2022/01/27 01:33:12;;;;;;;7.10;3.97;;;;;;;0.32;100.00;95150.28;5070933;28;20239;-59
2022/01/27 01:35:49;;;;;;;4.60;3.00;;;;;;;0.34;100.00;95156.88;5071694;28;20192;-60
2022/01/27 01:38:18;;;;;;;5.97;3.80;;;;;;;0.28;100.00;95156.28;5070068;28;20204;-59
2022/01/27 01:40:47;;;;;;;5.60;3.50;;;;;;;0.27;100.00;95147.13;5071370;28;20558;-67
2022/01/27 01:43:12;;;;;;;5.30;3.10;;;;;;;0.39;100.00;95149.16;5071145;28;20205;-61
2022/01/27 01:45:38;;;;;;;6.30;3.73;;;;;;;0.36;100.00;95155.13;5074968;28;20193;-59
2022/01/27 01:48:04;;;;;;;5.73;4.30;;;;;;;0.12;100.00;95140.22;5073277;28;20208;-66
2022/01/27 01:50:30;;;;;;;8.27;4.90;;;;;;;0.10;100.00;95134.47;5075027;28;20297;-59
2022/01/27 01:52:56;;;;;;;6.87;3.17;;;;;;;-0.04;100.00;95125.75;5074571;28;20224;-61
2022/01/27 01:55:21;;;;;;;4.70;3.00;;;;;;;-0.01;100.00;95128.16;5056844;28;20194;-66
2022/01/27 01:57:47;;;;;;;7.33;3.23;;;;;;;0.03;100.00;95128.03;5074328;28;20678;-67
2022/01/27 02:00:13;;;;;;;3.63;2.67;;;;;;;0.02;100.00;95121.44;5074832;28;20189;-61
2022/01/27 02:02:40;;;;;;;3.50;2.60;;;;;;;-0.04;100.00;95110.78;5074287;28;20242;-64
2022/01/27 02:05:08;;;;;;;3.63;2.27;;;;;;;-0.10;100.00;95118.50;5074282;28;20199;-66
2022/01/27 02:07:53;;;;;;;2.67;2.37;;;;;;;-0.16;100.00;95111.22;5072909;28;20184;-62
2022/01/27 02:10:41;;;;;;;5.73;2.53;;;;;;;-0.16;100.00;95093.72;5073473;28;20203;-65
2022/01/27 02:18:39;;;;;;;3.37;2.30;;;;;;;0.00;100.00;95109.78;5073938;28;20277;-66
2022/01/27 02:21:04;;;;;;;5.33;2.63;;;;;;;0.00;100.00;95097.28;5072754;28;20608;-67
2022/01/27 02:23:30;;;;;;;4.53;2.90;;;;;;;0.04;100.00;95094.69;5073816;28;20211;-65
2022/01/27 02:25:55;;;;;;;3.37;2.10;;;;;;;-0.06;100.00;95097.53;5074026;28;20293;-62
2022/01/27 02:28:21;;;;;;;3.50;2.30;;;;;;;-0.03;100.00;95084.94;5078960;23;20402;-61
2022/01/27 02:30:46;;;;;;;3.53;2.00;;;;;;;-0.10;100.00;95091.00;5073859;28;20188;-59
2022/01/27 02:33:11;;;;;;;3.73;2.20;;;;;;;-0.04;100.00;95093.28;5073969;28;20227;-62
2022/01/27 02:35:37;;;;;;;4.13;2.40;;;;;;;-0.05;100.00;95091.69;5073715;28;20225;-66
2022/01/27 02:38:03;;;;;;;3.13;2.23;;;;;;;-0.05;100.00;95091.69;5073739;28;20219;-59
2022/01/27 02:40:34;;;;;;;3.00;2.00;;;;;;;-0.02;100.00;95089.03;5073650;28;20585;-61
2022/01/27 02:43:02;;;;;;;3.47;1.93;;;;;;;-0.03;100.00;95097.44;5073819;28;20690;-66
2022/01/27 02:45:45;;;;;;;2.57;2.17;;;;;;;-0.10;100.00;95095.19;5072265;28;20197;-65
2022/01/27 02:48:13;;;;;;;2.67;1.83;;;;;;;-0.04;100.00;95087.47;5073772;28;20295;-64
2022/01/27 02:50:40;;;;;;;2.70;2.00;;;;;;;-0.01;100.00;95094.88;5073623;28;20184;-59
2022/01/27 02:53:09;;;;;;;3.97;2.50;;;;;;;0.14;100.00;95081.81;5055302;28;20350;-59
2022/01/27 02:55:35;;;;;;;3.30;2.03;;;;;;;0.07;100.00;95092.06;5072395;28;20265;-64
2022/01/27 02:58:02;;;;;;;3.43;2.23;;;;;;;0.24;100.00;95080.59;5073630;28;20289;-59
2022/01/27 03:00:27;;;;;;;4.83;3.03;;;;;;;0.32;100.00;95087.78;5073236;28;20181;-67
2022/01/27 03:02:53;;;;;;;3.43;2.43;;;;;;;0.32;100.00;95096.13;5073274;28;20201;-65
2022/01/27 03:05:18;;;;;;;2.87;2.07;;;;;;;0.28;100.00;95086.28;5071827;28;20188;-64
2022/01/27 03:07:47;;;;;;;2.17;1.70;;;;;;;0.31;100.00;95101.97;5073342;28;20540;-66
2022/01/27 03:10:17;;;;;;;3.00;2.53;;;;;;;0.25;100.00;95103.88;5073122;28;20176;-67
2022/01/27 03:12:44;;;;;;;2.33;1.73;;;;;;;0.15;100.00;95087.59;5072976;28;20232;-68
2022/01/27 03:15:11;;;;;;;3.93;2.03;;;;;;;0.25;100.00;95091.38;5073565;28;20187;-67
2022/01/27 03:17:40;;;;;;;4.63;2.53;;;;;;;0.12;100.00;95085.22;5073080;28;20196;-59
2022/01/27 03:20:09;;;;;;;2.17;1.90;;;;;;;0.36;100.00;95089.31;5071700;28;20195;-65
2022/01/27 03:22:35;;;;;;;3.97;2.33;;;;;;;0.17;100.00;95090.84;5071265;28;20219;-60
2022/01/27 03:25:00;;;;;;;2.37;1.87;;;;;;;0.22;100.00;95089.84;5071421;28;20179;-60
2022/01/27 03:27:27;;;;;;;3.37;2.47;;;;;;;0.41;100.00;95095.75;5072565;28;20173;-66
2022/01/27 03:29:53;;;;;;;3.13;2.67;;;;;;;0.54;100.00;95098.59;5073644;28;20189;-64
2022/01/27 03:32:19;;;;;;;2.77;2.47;;;;;;;0.64;100.00;95113.19;5072798;28;20169;-59
2022/01/27 03:34:45;;;;;;;3.90;2.40;;;;;;;0.75;100.00;95120.25;5072792;28;20200;-65
2022/01/27 03:37:10;;;;;;;3.10;2.47;;;;;;;0.74;100.00;95111.13;5072350;28;20211;-65
2022/01/27 03:39:38;;;;;;;7.03;3.77;;;;;;;0.65;100.00;95106.47;5072857;28;20301;-66
2022/01/27 03:42:06;;;;;;;7.03;3.77;;;;;;;0.56;100.00;95104.34;5072382;28;20179;-65
2022/01/27 03:44:31;;;;;;;7.73;4.63;;;;;;;0.39;100.00;95104.16;5072852;28;20282;-60
2022/01/27 03:46:58;;;;;;;3.87;2.57;;;;;;;0.49;100.00;95105.44;5072611;28;20181;-64
2022/01/27 03:49:23;;;;;;;3.40;1.90;;;;;;;0.59;100.00;95111.72;5071265;28;20215;-59
2022/01/27 03:51:49;;;;;;;3.03;2.43;;;;;;;0.45;100.00;95103.94;5072320;28;20267;-61
2022/01/27 03:54:18;;;;;;;3.40;2.30;;;;;;;0.55;100.00;95107.69;5070837;28;20290;-62
2022/01/27 03:56:44;;;;;;;3.10;2.07;;;;;;;0.74;100.00;95111.13;5072515;28;20223;-61
2022/01/27 03:59:14;;;;;;;2.43;2.23;;;;;;;0.61;100.00;95104.97;5073363;28;20560;-61
2022/01/27 04:01:40;;;;;;;4.17;2.50;;;;;;;0.73;100.00;95112.81;5072840;28;20259;-67
2022/01/27 04:04:07;;;;;;;3.90;2.53;;;;;;;0.54;100.00;95113.59;5054826;28;20239;-68
2022/01/27 04:06:35;;;;;;;4.33;2.70;;;;;;;0.67;100.00;95114.72;5072540;28;20757;-67
2022/01/27 04:09:04;;;;;;;2.87;2.33;;;;;;;0.53;100.00;95122.78;5072558;28;20327;-61
2022/01/27 04:11:30;;;;;;;2.53;2.00;;;;;;;0.31;100.00;95106.97;5071160;28;20202;-70
2022/01/27 04:13:56;;;;;;;3.53;2.43;;;;;;;0.25;100.00;95101.38;5072203;28;20243;-66
2022/01/27 04:16:22;;;;;;;4.27;2.30;;;;;;;0.12;100.00;95097.72;5072279;28;20192;-65
2022/01/27 04:18:48;;;;;;;4.17;2.30;;;;;;;0.26;100.00;95103.03;5072678;28;20212;-60
2022/01/27 04:21:15;;;;;;;2.47;2.00;;;;;;;0.08;100.00;95111.22;5072264;28;20183;-65
2022/01/27 04:23:42;;;;;;;3.43;2.30;;;;;;;0.10;100.00;95106.97;5070602;28;20570;-61
2022/01/27 04:26:10;;;;;;;4.37;2.70;;;;;;;-0.04;100.00;95099.97;5071141;28;20184;-62
2022/01/27 04:28:37;;;;;;;2.80;2.07;;;;;;;0.05;100.00;95098.81;5072016;28;20291;-62
2022/01/27 04:31:09;;;;;;;2.67;2.20;;;;;;;-0.07;100.00;95090.91;5072397;28;20185;-63
2022/01/27 04:33:43;;;;;;;2.47;2.10;;;;;;;-0.07;100.00;95100.09;5071385;28;20219;-69
2022/01/27 04:36:17;;;;;;;2.67;2.07;;;;;;;-0.15;100.00;95097.06;5071015;28;20188;-67
2022/01/27 04:39:31;;;;;;;3.30;2.03;;;;;;;-0.06;100.00;95104.19;5070682;28;20246;-65
2022/01/27 04:41:40;;;;;;;2.73;2.40;;;;;;;-0.12;100.00;95107.75;5066440;28;20207;-63
2022/01/27 04:47:04;;;;;;;3.30;2.17;;;;;;;-0.08;100.00;95103.44;5072666;28;20290;-66
2022/01/27 04:49:30;;;;;;;2.63;2.13;;;;;;;-0.11;100.00;95106.88;5072871;28;20196;-68
2022/01/27 04:51:56;;;;;;;3.33;2.50;;;;;;;-0.16;100.00;95103.72;5072043;28;20183;-67
2022/01/27 04:54:31;;;;;;;4.20;2.27;;;;;;;-0.05;100.00;95106.66;5072328;28;20219;-62
2022/01/27 04:57:02;;;;;;;3.80;2.60;;;;;;;-0.11;100.00;95114.38;5070936;28;20677;-66
2022/01/27 04:59:31;;;;;;;3.63;2.83;;;;;;;-0.17;100.00;95108.78;5077200;23;20238;-66
2022/01/27 05:02:13;;;;;;;3.07;2.57;;;;;;;-0.08;100.00;95118.44;5071649;28;20194;-68
2022/01/27 05:04:43;;;;;;;2.70;2.20;;;;;;;-0.03;100.00;95129.91;5072783;28;20282;-61
2022/01/27 05:07:08;;;;;;;4.87;2.77;;;;;;;0.07;100.00;95129.56;5071854;28;20184;-67
2022/01/27 05:09:34;;;;;;;3.20;2.37;;;;;;;0.01;100.00;95135.59;5072625;28;20274;-67
2022/01/27 05:12:13;;;;;;;3.50;2.83;;;;;;;0.04;100.00;95143.00;5072746;28;20183;-63
2022/01/27 05:14:38;;;;;;;2.30;2.10;;;;;;;-0.03;100.00;95131.59;5072440;28;20232;-67
2022/01/27 05:17:04;;;;;;;3.00;2.70;;;;;;;-0.03;100.00;95131.59;5070693;28;20750;-66
2022/01/27 05:19:30;;;;;;;2.83;2.17;;;;;;;-0.11;100.00;95136.88;5073787;28;20286;-62
2022/01/27 05:21:56;;;;;;;3.30;2.37;;;;;;;-0.20;100.00;95128.88;5076182;28;20672;-67
2022/01/27 05:24:22;;;;;;;3.33;2.40;;;;;;;-0.18;100.00;95137.94;5075838;28;20295;-61
2022/01/27 05:26:48;;;;;;;3.43;2.60;;;;;;;-0.20;100.00;95139.69;5074368;28;20628;-66
2022/01/27 05:29:13;;;;;;;3.53;3.17;;;;;;;-0.21;100.00;95140.56;5075793;28;20222;-63
2022/01/27 05:31:39;;;;;;;5.77;3.20;;;;;;;-0.16;100.00;95141.19;5075940;28;20210;-66
2022/01/27 05:34:06;;;;;;;3.77;2.67;;;;;;;-0.24;100.00;95133.16;5075566;28;20225;-69
2022/01/27 05:36:33;;;;;;;3.33;3.00;;;;;;;-0.20;100.00;95144.66;5075443;28;20192;-62
2022/01/27 05:39:00;;;;;;;3.30;3.00;;;;;;;-0.11;100.00;95146.84;5076197;28;20200;-62
2022/01/27 05:41:26;;;;;;;4.10;3.27;;;;;;;-0.10;100.00;95152.66;5073637;28;20177;-64
2022/01/27 05:43:51;;;;;;;4.20;3.33;;;;;;;-0.08;100.00;95148.41;5075323;28;20231;-62
2022/01/27 05:46:18;;;;;;;4.57;3.30;;;;;;;-0.06;100.00;95152.50;5075589;28;20565;-67
2022/01/27 05:48:43;;;;;;;4.63;3.40;;;;;;;-0.13;100.00;95156.09;5075790;28;20208;-66
2022/01/27 05:51:09;;;;;;;5.90;3.40;;;;;;;-0.18;100.00;95145.44;5075584;28;20206;-65
2022/01/27 05:53:36;;;;;;;5.53;3.77;;;;;;;-0.07;100.00;95150.88;5075187;28;20273;-61
2022/01/27 05:56:02;;;;;;;4.90;3.07;;;;;;;-0.23;100.00;95157.28;5075569;28;20180;-68
2022/01/27 05:58:28;;;;;;;6.67;4.03;;;;;;;-0.10;100.00;95150.97;5073776;28;20310;-61
2022/01/27 06:00:54;;;;;;;5.10;3.70;;;;;;;-0.12;100.00;95152.69;5075004;28;20277;-62
2022/01/27 06:03:19;;;;;;;4.27;3.30;;;;;;;-0.10;100.00;95162.63;5073115;28;20254;-63
2022/01/27 06:05:45;;;;;;;5.00;3.83;;;;;;;-0.08;100.00;95173.38;5073492;28;20630;-66
2022/01/27 06:08:11;;;;;;;5.97;3.97;;;;;;;-0.15;100.00;95167.81;5074978;28;20569;-66
2022/01/27 06:10:37;;;;;;;5.17;3.90;;;;;;;-0.09;100.00;95171.78;5074864;28;20318;-61
2022/01/27 06:13:03;;;;;;;4.90;3.00;;;;;;;0.06;100.00;95175.41;5075045;28;20704;-63
2022/01/27 06:15:29;;;;;;;6.93;4.50;;;;;;;0.11;100.00;95171.88;5074122;28;20193;-64
2022/01/27 06:17:56;;;;;;;5.27;3.77;;;;;;;0.00;100.00;95173.97;5074211;28;20666;-62
2022/01/27 06:20:22;;;;;;;7.80;4.90;;;;;;;0.04;100.00;95182.16;5074124;28;20212;-67
2022/01/27 06:22:48;;;;;;;7.83;4.57;;;;;;;-0.01;100.00;95183.13;5073561;28;20310;-68
2022/01/27 06:25:15;;;;;;;6.03;4.53;;;;;;;-0.10;100.00;95180.94;5074167;28;20176;-61
2022/01/27 06:27:41;;;;;;;7.93;5.20;;;;;;;-0.05;100.00;95186.59;5072625;28;20282;-62
2022/01/27 06:30:10;;;;;;;9.83;5.03;;;;;;;0.07;100.00;95184.53;5073836;28;20207;-60
2022/01/27 06:32:36;;;;;;;9.80;5.13;;;;;;;0.11;100.00;95183.56;5072461;28;20631;-61
2022/01/27 06:35:04;;;;;;;7.50;4.80;;;;;;;0.01;100.00;95185.56;5072645;28;20292;-61
2022/01/27 06:37:31;;;;;;;8.83;5.40;;;;;;;-0.09;100.00;95192.59;5073633;28;20201;-66
2022/01/27 06:39:57;;;;;;;7.10;5.10;;;;;;;-0.16;100.00;95196.16;5073720;28;20184;-60
2022/01/27 06:42:23;;;;;;;7.57;4.63;;;;;;;-0.12;100.00;95196.84;5073571;28;20180;-61
2022/01/27 06:44:48;;;;;;;7.97;4.90;;;;;;;-0.08;100.00;95188.38;5073674;28;20604;-63
2022/01/27 06:47:14;;;;;;;7.60;5.33;;;;;;;-0.09;100.00;95196.75;5073502;28;20570;-68
2022/01/27 06:49:39;;;;;;;5.87;4.63;;;;;;;-0.01;100.00;95200.63;5073901;28;20208;-61
2022/01/27 06:52:06;;;;;;;7.67;4.30;;;;;;;0.04;100.00;95197.97;5073569;28;20176;-68
2022/01/27 06:54:32;;;;;;;5.93;4.20;;;;;;;0.30;100.00;95194.53;5071993;28;20296;-68
2022/01/27 06:56:57;;;;;;;6.70;4.87;;;;;;;0.28;100.00;95199.59;5073221;28;20295;-65
2022/01/27 06:59:23;;;;;;;7.30;5.00;;;;;;;0.34;100.00;95196.03;5073771;28;20669;-62
2022/01/27 07:01:48;;;;;;;7.00;4.87;;;;;;;0.20;100.00;95198.22;5073273;28;20191;-61
2022/01/27 07:04:14;;;;;;;6.90;5.00;;;;;;;0.13;100.00;95181.81;5073926;28;20692;-62
2022/01/27 07:06:40;;;;;;;9.93;4.73;;;;;;;0.24;100.00;95195.56;5073280;28;20606;-60
2022/01/27 07:09:06;;;;;;;6.27;4.60;;;;;;;0.16;100.00;95197.53;5073359;28;20216;-60
2022/01/27 07:11:31;;;;;;;7.03;4.53;;;;;;;0.07;100.00;95189.53;5073105;28;20210;-62
2022/01/27 07:16:24;;;;;;;7.70;5.30;;;;;;;0.24;100.00;95195.56;5050336;28;20209;-61
2022/01/27 07:18:52;;;;;;;6.87;5.13;;;;;;;0.24;100.00;95209.75;5035119;28;20581;-62
2022/01/27 07:21:19;;;;;;;8.03;4.60;;;;;;;0.18;100.00;95204.97;5052903;28;20624;-61
2022/01/27 07:23:50;;;;;;;8.53;6.23;;;;;;;0.17;100.00;95205.81;5052903;28;20205;-67
2022/01/27 07:26:16;;;;;;;8.77;5.83;;;;;;;0.16;100.00;95205.03;5053178;28;20195;-62
2022/01/27 07:28:42;;;;;;;6.83;4.83;;;;;;;0.15;100.00;95210.88;5052950;28;20292;-62
2022/01/27 07:31:08;;;;;;;7.33;5.13;;;;;;;0.08;100.00;95206.16;5052718;28;20185;-61
2022/01/27 07:33:33;;;;;;;7.80;5.20;;;;;;;0.09;100.00;95207.78;5052645;28;20201;-68
2022/01/27 07:35:59;;;;;;;10.00;6.00;;;;;;;0.25;100.00;95209.69;5052854;28;20730;-62
2022/01/27 07:38:26;;;;;;;8.20;5.73;;;;;;;0.27;100.00;95219.63;5052085;28;20306;-68
2022/01/27 07:40:52;;;;;;;8.57;5.00;;;;;;;0.23;100.00;95208.09;5052190;28;20184;-64
2022/01/27 07:43:17;;;;;;;9.17;6.37;;;;;;;0.19;100.00;95206.59;5051852;28;20257;-62
2022/01/27 07:45:43;;;;;;;8.50;6.10;;;;;;;0.31;100.00;95216.13;5034772;28;20184;-62
2022/01/27 07:48:09;;;;;;;9.90;5.70;;;;;;;0.31;100.00;95209.47;5052287;28;20258;-60
2022/01/27 07:50:34;;;;;;;8.07;5.13;;;;;;;0.29;100.00;95205.38;5052868;28;20623;-66
2022/01/27 07:53:00;;;;;;;8.17;6.23;;;;;;;0.36;100.00;95224.31;5052357;28;20209;-62
2022/01/27 07:55:26;;;;;;;10.10;6.07;;;;;;;0.39;100.00;95219.19;5034528;28;20192;-65
2022/01/27 07:57:52;;;;;;;6.97;5.23;;;;;;;0.40;100.00;95220.81;5052004;28;20278;-60
2022/01/27 08:00:17;;;;;;;10.37;5.73;;;;;;;0.26;100.00;95211.31;5034545;28;20188;-59
2022/01/27 08:02:45;;;;;;;11.87;6.30;;;;;;;0.38;100.00;95215.06;5017825;28;20728;-60
2022/01/27 08:05:11;;;;;;;10.03;6.20;;;;;;;0.36;100.00;95226.81;5052796;28;20196;-65
2022/01/27 08:07:36;;;;;;;7.23;5.00;;;;;;;0.25;100.00;95221.34;5052019;28;20183;-59
2022/01/27 08:10:02;;;;;;;8.20;5.27;;;;;;;0.29;100.00;95215.38;5052440;28;20564;-63
2022/01/27 08:12:27;;;;;;;6.90;5.30;;;;;;;0.38;100.00;95217.56;5033968;28;20189;-62
2022/01/27 08:14:53;;;;;;;8.53;5.60;;;;;;;0.36;100.00;95216.81;5052232;28;20658;-70
2022/01/27 08:17:18;;;;;;;8.47;6.00;;;;;;;0.29;100.00;95215.38;5052037;28;20209;-68
2022/01/27 08:19:44;;;;;;;7.80;5.43;;;;;;;0.30;100.00;95222.84;5034007;28;20242;-68
2022/01/27 08:22:13;;;;;;;12.33;6.40;;;;;;;0.35;100.00;95215.97;5033911;28;20251;-60
2022/01/27 08:24:39;;;;;;;12.07;6.53;;;;;;;0.41;100.00;95225.75;5032416;28;20274;-61
2022/01/27 08:27:07;;;;;;;8.50;5.80;;;;;;;0.42;100.00;95222.41;5031648;28;20181;-69
2022/01/27 08:29:44;;;;;;;9.97;6.57;;;;;;;0.43;100.00;95220.69;5049772;28;20236;-62
2022/01/27 08:32:16;;;;;;;10.10;6.00;;;;;;;0.32;100.00;95230.28;5032650;28;20211;-69
2022/01/27 08:34:41;;;;;;;9.53;6.53;;;;;;;0.56;100.00;95232.72;5050622;28;20259;-68
2022/01/27 08:37:10;;;;;;;9.70;6.67;;;;;;;0.55;100.00;95231.06;5050322;28;20204;-66
2022/01/27 08:39:37;;;;;;;10.17;6.43;;;;;;;0.47;100.00;95228.03;5050442;28;20281;-70
2022/01/27 08:42:04;;;;;;;8.60;6.10;;;;;;;0.54;100.00;95234.44;5033309;28;20181;-68
2022/01/27 08:44:30;;;;;;;8.27;5.90;;;;;;;0.42;100.00;95239.91;5051641;28;20212;-68
2022/01/27 08:46:56;;;;;;;10.40;6.07;;;;;;;0.27;100.00;95240.44;5051904;28;20169;-67
2022/01/27 08:49:25;;;;;;;9.40;6.20;;;;;;;0.42;100.00;95236.59;5052238;28;20262;-68
2022/01/27 08:51:50;;;;;;;10.83;6.60;;;;;;;0.45;100.00;95236.44;5051348;28;20557;-67
2022/01/27 08:54:17;;;;;;;12.20;7.03;;;;;;;0.56;100.00;95242.72;5034331;28;20694;-68
2022/01/27 08:56:43;;;;;;;10.27;6.50;;;;;;;0.72;100.00;95246.28;5033934;28;20200;-67
2022/01/27 08:59:09;;;;;;;10.37;6.53;;;;;;;0.60;100.00;95250.91;5033400;28;20205;-69
2022/01/27 09:01:35;;;;;;;9.33;6.03;;;;;;;0.55;100.00;95242.75;5051295;28;20568;-69
2022/01/27 09:04:01;;;;;;;10.23;6.70;;;;;;;0.61;100.00;95245.03;5033456;28;20213;-68
2022/01/27 09:06:30;;;;;;;10.87;6.77;;;;;;;0.43;100.00;95245.69;5033320;28;20568;-66
2022/01/27 09:08:57;;;;;;;9.27;6.43;;;;;;;0.47;100.00;95243.03;5051145;28;20207;-68
2022/01/27 09:11:23;;;;;;;10.93;7.00;;;;;;;0.47;100.00;95247.22;5051222;28;20196;-66
2022/01/27 09:13:49;;;;;;;11.80;7.10;;;;;;;0.54;100.00;95246.13;5051265;28;20212;-69
2022/01/27 09:16:16;;;;;;;11.47;7.30;;;;;;;0.56;100.00;95247.72;5033540;28;20699;-68
2022/01/27 09:18:41;;;;;;;10.30;7.67;;;;;;;0.50;100.00;95247.94;5050873;28;20599;-66
2022/01/27 09:21:12;;;;;;;10.93;6.33;;;;;;;0.70;100.00;95250.53;5050994;28;20656;-68
2022/01/27 09:23:38;;;;;;;15.17;8.67;;;;;;;0.63;100.00;95249.09;5033008;28;20255;-68
2022/01/27 09:26:08;;;;;;;11.60;7.53;;;;;;;0.75;100.00;95247.81;5050948;28;20605;-65
2022/01/27 09:28:34;;;;;;;13.63;8.40;;;;;;;0.76;100.00;95249.47;5050754;28;20710;-67
2022/01/27 09:31:01;;;;;;;13.37;8.10;;;;;;;0.91;100.00;95258.09;5050936;28;20213;-65
2022/01/27 09:33:27;;;;;;;12.83;7.10;;;;;;;0.88;100.00;95253.19;5050719;28;20196;-69
2022/01/27 09:35:53;;;;;;;9.47;7.00;;;;;;;0.80;100.00;95253.50;5050944;28;20711;-66
2022/01/27 09:38:19;;;;;;;10.67;7.37;;;;;;;0.82;100.00;95249.25;5032769;28;20227;-69
2022/01/27 09:40:49;;;;;;;15.07;8.10;;;;;;;1.01;100.00;95247.66;5051264;28;20189;-70
2022/01/27 09:43:14;;;;;;;11.77;7.70;;;;;;;1.12;100.00;95245.56;5051159;28;20221;-67
2022/01/27 09:45:40;;;;;;;15.13;7.67;;;;;;;1.26;100.00;95248.34;5051361;28;20217;-67
2022/01/27 09:48:14;;;;;;;14.07;8.33;;;;;;;1.19;100.00;95258.66;5032985;28;20205;-69
2022/01/27 09:53:08;;;;;;;10.73;7.10;;;;;;;1.19;100.00;95244.44;5050632;28;20197;-67
2022/01/27 09:55:34;;;;;;;9.73;6.23;;;;;;;1.07;100.00;95241.63;5051042;28;20276;-68
2022/01/27 09:58:01;;;;;;;14.67;6.97;;;;;;;1.16;100.00;95249.59;5032511;28;20672;-68
2022/01/27 10:00:27;;;;;;;11.53;7.53;;;;;;;1.11;100.00;95245.63;5032550;28;20189;-67
2022/01/27 10:03:06;;;;;;;13.83;6.80;;;;;;;1.03;100.00;95238.41;5050563;28;20359;-67
2022/01/27 10:05:32;;;;;;;11.13;7.27;;;;;;;0.95;100.00;95239.59;5034643;28;20186;-67
2022/01/27 10:08:09;;;;;;;10.50;6.53;;;;;;;1.14;100.00;95245.50;5036394;28;20197;-68
2022/01/27 10:10:41;;;;;;;10.27;7.77;;;;;;;1.18;100.00;95250.34;5036428;28;20201;-67
2022/01/27 10:13:10;;;;;;;11.70;7.03;;;;;;;1.27;100.00;95244.97;5054354;28;20576;-69
2022/01/27 10:15:39;;;;;;;10.63;7.03;;;;;;;1.42;100.00;95276.09;5035932;28;20212;-68
2022/01/27 10:18:17;;;;;;;11.23;6.70;;;;;;;1.41;100.00;95265.28;5053520;28;20691;-67
2022/01/27 10:20:44;;;;;;;10.20;7.17;;;;;;;1.42;100.00;95246.03;5054255;28;20314;-67
2022/01/27 10:23:20;;;;;;;11.63;7.73;;;;;;;1.70;100.00;95256.56;5035824;28;20198;-68
2022/01/27 10:25:53;;;;;;;13.27;7.50;;;;;;;1.53;100.00;95262.28;5036107;28;20189;-68
2022/01/27 10:28:51;;;;;;;11.10;7.50;;;;;;;1.56;100.00;95257.16;5036175;28;20280;-69
2022/01/27 10:31:25;;;;;;;8.57;5.47;;;;;;;1.48;100.00;95273.34;5053929;28;20184;-69
2022/01/27 10:33:58;;;;;;;8.43;6.73;;;;;;;1.51;100.00;95255.72;5040915;23;20232;-59
2022/01/27 10:36:44;;;;;;;11.10;6.53;;;;;;;1.52;100.00;95269.84;5054015;28;20185;-68
2022/01/27 10:39:12;;;;;;;11.37;6.57;;;;;;;1.50;100.00;95261.59;5035600;28;20212;-67
2022/01/27 10:41:55;;;;;;;11.00;7.03;;;;;;;1.34;100.00;95268.06;5059630;23;20185;-60
2022/01/27 10:44:22;;;;;;;9.63;6.67;;;;;;;1.98;100.00;95292.16;4995656;28;20308;-61
2022/01/27 10:47:06;;;;;;;12.80;6.47;;;;;;;2.39;100.00;95297.97;4994369;28;20634;-60
2022/01/27 10:49:35;;;;;;;10.03;6.77;;;;;;;2.88;100.00;95322.56;4976565;28;20214;-65
2022/01/27 10:52:01;;;;;;;9.63;5.97;;;;;;;3.66;97.25;95368.38;4994023;28;20188;-67
2022/01/27 10:57:08;;;;;;;9.63;6.10;;;;;;;4.16;92.72;95389.41;4994199;28;20693;-61
2022/01/27 10:59:34;;;;;;;10.53;6.60;;;;;;;3.91;93.60;95346.22;4976432;28;20210;-60
2022/01/27 11:02:06;;;;;;;7.27;4.70;;;;;;;3.21;93.68;95323.53;4994075;28;20738;-62
2022/01/27 11:04:37;;;;;;;7.43;5.47;;;;;;;2.76;94.92;95277.91;4994425;28;20285;-60
2022/01/27 11:07:11;;;;;;;8.17;5.40;;;;;;;3.28;94.33;95309.00;4994093;28;20300;-63
2022/01/27 11:09:41;;;;;;;7.87;5.33;;;;;;;3.84;94.24;95311.38;4994208;28;20199;-60
2022/01/27 11:12:11;;;;;;;9.83;6.17;;;;;;;3.56;92.21;95333.66;4976368;28;20285;-60
2022/01/27 11:14:37;;;;;;;9.40;5.93;;;;;;;3.61;93.56;95317.50;4993654;28;20238;-66
2022/01/27 11:17:06;;;;;;;10.47;6.53;;;;;;;4.16;91.48;95348.38;4975202;28;20239;-67
2022/01/27 11:22:12;;;;;;;9.33;6.40;;;;;;;5.35;100.00;95294.31;4993681;28;20187;-62
2022/01/27 11:25:49;;;;;;;8.83;5.60;;;;;;;6.55;100.00;95237.78;4992433;28;20250;-61
2022/01/27 11:27:45;;;;;;;8.80;5.77;;;;;;;7.49;100.00;95225.97;4993632;28;20217;-60
2022/01/27 11:30:24;;;;;;;7.30;5.23;;;;;;;5.97;87.04;95371.59;4993919;28;20216;-65
2022/01/27 11:33:02;;;;;;;7.87;5.00;;;;;;;5.39;91.12;95320.97;4976023;28;20270;-66
2022/01/27 11:35:28;;;;;;;6.47;4.97;;;;;;;4.43;90.74;95294.16;4993483;28;20182;-65
2022/01/27 11:37:56;;;;;;;6.57;4.80;;;;;;;4.33;91.64;95256.94;4993768;28;20286;-61
2022/01/27 11:40:33;;;;;;;7.30;4.70;;;;;;;3.97;91.45;95252.88;4993555;28;20248;-60
2022/01/27 11:42:59;;;;;;;6.93;4.43;;;;;;;3.42;92.87;95221.25;5013695;23;20233;-64
2022/01/27 11:45:26;;;;;;;6.30;4.53;;;;;;;3.20;94.09;95211.41;5052746;28;20632;-67
2022/01/27 11:48:08;;;;;;;6.73;4.63;;;;;;;3.05;97.74;95158.59;5052565;28;20757;-61
2022/01/27 11:53:45;;;;;;;6.20;4.30;;;;;;;2.69;97.56;95181.19;5052527;28;20206;-63
2022/01/27 11:56:29;;;;;;;6.73;4.77;;;;;;;2.44;97.69;95175.66;5052524;28;20166;-66
2022/01/27 11:58:56;;;;;;;6.27;4.97;;;;;;;2.47;98.36;95157.94;5052841;28;20232;-61
2022/01/27 12:01:25;;;;;;;7.40;4.63;;;;;;;2.55;98.48;95170.97;5052655;28;20177;-66
2022/01/27 12:04:02;;;;;;;6.63;4.67;;;;;;;2.41;98.54;95185.81;5052926;28;20263;-61
2022/01/27 12:06:35;;;;;;;5.20;3.90;;;;;;;2.49;97.09;95193.81;5034395;28;20181;-59
2022/01/27 12:09:19;;;;;;;5.47;3.97;;;;;;;2.34;98.66;95162.69;5052364;28;20310;-65
2022/01/27 12:11:55;;;;;;;6.17;4.43;;;;;;;2.84;97.21;95179.66;5052076;28;20204;-63
2022/01/27 12:14:47;;;;;;;6.17;4.20;;;;;;;3.05;95.74;95219.66;5052381;28;20201;-65
2022/01/27 12:17:13;;;;;;;6.93;4.30;;;;;;;3.07;96.30;95202.81;5042547;28;20241;-66